sensor_id;sensor_type;location;lat;lon;timestamp;temperature;humidity
484;DHT22;228;48.922;12.198;2023-06-22T04:00:40;21.90;82.10
484;DHT22;228;48.922;12.198;2023-06-22T04:03:07;21.50;83.90
484;DHT22;228;48.922;12.198;2023-06-22T04:05:33;21.40;85.30
484;DHT22;228;48.922;12.198;2023-06-22T04:07:59;21.50;84.80
484;DHT22;228;48.922;12.198;2023-06-22T04:10:25;21.70;84.60
484;DHT22;228;48.922;12.198;2023-06-22T04:12:51;21.70;84.00
484;DHT22;228;48.922;12.198;2023-06-22T04:15:17;21.50;84.60
484;DHT22;228;48.922;12.198;2023-06-22T04:17:43;21.40;85.20
484;DHT22;228;48.922;12.198;2023-06-22T04:20:09;21.50;84.30
484;DHT22;228;48.922;12.198;2023-06-22T04:22:36;21.70;84.60
484;DHT22;228;48.922;12.198;2023-06-22T04:25:02;21.70;83.90
484;DHT22;228;48.922;12.198;2023-06-22T04:27:28;21.80;83.40
484;DHT22;228;48.922;12.198;2023-06-22T04:29:54;21.70;83.70
484;DHT22;228;48.922;12.198;2023-06-22T04:32:20;21.50;84.10
484;DHT22;228;48.922;12.198;2023-06-22T04:34:45;21.20;85.70
484;DHT22;228;48.922;12.198;2023-06-22T04:37:12;20.90;87.60
484;DHT22;228;48.922;12.198;2023-06-22T04:39:42;21.00;88.10
484;DHT22;228;48.922;12.198;2023-06-22T04:42:08;21.30;87.30
484;DHT22;228;48.922;12.198;2023-06-22T04:44:34;21.30;87.10
484;DHT22;228;48.922;12.198;2023-06-22T04:47:01;21.40;87.40
484;DHT22;228;48.922;12.198;2023-06-22T04:49:30;21.60;87.00
484;DHT22;228;48.922;12.198;2023-06-22T04:52:06;21.30;87.30
484;DHT22;228;48.922;12.198;2023-06-22T04:54:34;21.70;86.70
484;DHT22;228;48.922;12.198;2023-06-22T04:57:07;21.80;85.40
484;DHT22;228;48.922;12.198;2023-06-22T04:59:36;21.80;86.00
484;DHT22;228;48.922;12.198;2023-06-22T05:02:05;22.00;84.80
484;DHT22;228;48.922;12.198;2023-06-22T05:04:31;21.70;85.50
484;DHT22;228;48.922;12.198;2023-06-22T05:06:58;21.70;86.80
484;DHT22;228;48.922;12.198;2023-06-22T05:09:26;21.60;87.10
484;DHT22;228;48.922;12.198;2023-06-22T05:11:52;21.80;85.60
484;DHT22;228;48.922;12.198;2023-06-22T05:14:18;21.70;85.30
484;DHT22;228;48.922;12.198;2023-06-22T05:16:45;21.50;86.10
484;DHT22;228;48.922;12.198;2023-06-22T05:19:12;21.50;88.10
484;DHT22;228;48.922;12.198;2023-06-22T05:21:41;21.80;87.30
484;DHT22;228;48.922;12.198;2023-06-22T05:24:07;21.90;86.20
484;DHT22;228;48.922;12.198;2023-06-22T05:26:34;21.80;85.80
484;DHT22;228;48.922;12.198;2023-06-22T05:29:01;21.60;86.80
484;DHT22;228;48.922;12.198;2023-06-22T05:31:28;21.80;86.70
484;DHT22;228;48.922;12.198;2023-06-22T05:33:55;22.10;86.30
484;DHT22;228;48.922;12.198;2023-06-22T05:36:22;22.50;84.10
484;DHT22;228;48.922;12.198;2023-06-22T05:38:51;22.60;83.20
484;DHT22;228;48.922;12.198;2023-06-22T05:41:18;22.80;83.40
484;DHT22;228;48.922;12.198;2023-06-22T05:43:44;22.90;82.50
484;DHT22;228;48.922;12.198;2023-06-22T05:46:10;23.20;80.90
484;DHT22;228;48.922;12.198;2023-06-22T05:48:36;23.20;79.20
484;DHT22;228;48.922;12.198;2023-06-22T05:51:03;23.20;79.90
484;DHT22;228;48.922;12.198;2023-06-22T05:53:29;23.00;82.00
484;DHT22;228;48.922;12.198;2023-06-22T05:55:55;23.40;81.00
484;DHT22;228;48.922;12.198;2023-06-22T05:58:21;23.70;79.10
484;DHT22;228;48.922;12.198;2023-06-22T06:00:47;23.90;79.00
484;DHT22;228;48.922;12.198;2023-06-22T06:03:13;24.10;78.40
484;DHT22;228;48.922;12.198;2023-06-22T06:05:42;24.10;77.40
484;DHT22;228;48.922;12.198;2023-06-22T06:08:10;24.20;77.90
484;DHT22;228;48.922;12.198;2023-06-22T06:10:37;24.70;76.90
484;DHT22;228;48.922;12.198;2023-06-22T06:13:03;24.90;75.10
484;DHT22;228;48.922;12.198;2023-06-22T06:15:31;24.80;74.10
484;DHT22;228;48.922;12.198;2023-06-22T06:17:57;25.20;74.40
484;DHT22;228;48.922;12.198;2023-06-22T06:20:25;25.30;73.10
484;DHT22;228;48.922;12.198;2023-06-22T06:22:53;25.30;72.60
484;DHT22;228;48.922;12.198;2023-06-22T06:25:19;25.30;71.70
484;DHT22;228;48.922;12.198;2023-06-22T06:27:46;25.30;71.10
484;DHT22;228;48.922;12.198;2023-06-22T06:30:14;25.60;70.20
484;DHT22;228;48.922;12.198;2023-06-22T06:32:41;25.90;70.10
484;DHT22;228;48.922;12.198;2023-06-22T06:35:08;26.00;68.60
484;DHT22;228;48.922;12.198;2023-06-22T06:37:37;26.10;68.20
484;DHT22;228;48.922;12.198;2023-06-22T06:40:09;26.40;66.30
484;DHT22;228;48.922;12.198;2023-06-22T06:42:38;26.60;66.10
484;DHT22;228;48.922;12.198;2023-06-22T06:45:07;26.60;66.30
484;DHT22;228;48.922;12.198;2023-06-22T06:47:34;26.80;64.20
484;DHT22;228;48.922;12.198;2023-06-22T06:50:00;26.40;64.30
484;DHT22;228;48.922;12.198;2023-06-22T06:52:26;26.70;65.10
484;DHT22;228;48.922;12.198;2023-06-22T06:54:52;27.40;64.00
484;DHT22;228;48.922;12.198;2023-06-22T06:57:18;27.80;60.30
484;DHT22;228;48.922;12.198;2023-06-22T06:59:46;28.20;58.90
484;DHT22;228;48.922;12.198;2023-06-22T07:02:12;28.20;56.50
484;DHT22;228;48.922;12.198;2023-06-22T07:04:38;28.20;57.40
484;DHT22;228;48.922;12.198;2023-06-22T07:07:04;28.40;56.50
484;DHT22;228;48.922;12.198;2023-06-22T07:09:31;28.60;55.20
484;DHT22;228;48.922;12.198;2023-06-22T07:11:57;28.50;55.00
484;DHT22;228;48.922;12.198;2023-06-22T07:14:23;28.20;56.10
484;DHT22;228;48.922;12.198;2023-06-22T07:16:49;28.40;56.10
484;DHT22;228;48.922;12.198;2023-06-22T07:19:15;28.40;55.60
484;DHT22;228;48.922;12.198;2023-06-22T07:21:41;28.60;55.40
484;DHT22;228;48.922;12.198;2023-06-22T07:24:08;28.60;55.40
484;DHT22;228;48.922;12.198;2023-06-22T07:26:34;28.40;55.90
484;DHT22;228;48.922;12.198;2023-06-22T07:29:00;28.60;56.30
484;DHT22;228;48.922;12.198;2023-06-22T07:31:26;28.90;55.90
484;DHT22;228;48.922;12.198;2023-06-22T07:33:52;28.80;56.50
484;DHT22;228;48.922;12.198;2023-06-22T07:36:18;28.30;57.30
484;DHT22;228;48.922;12.198;2023-06-22T07:38:44;28.20;58.20
484;DHT22;228;48.922;12.198;2023-06-22T07:41:11;28.80;57.70
484;DHT22;228;48.922;12.198;2023-06-22T07:43:36;29.00;56.80
484;DHT22;228;48.922;12.198;2023-06-22T07:46:03;29.00;57.80
484;DHT22;228;48.922;12.198;2023-06-22T07:48:29;28.80;58.10
484;DHT22;228;48.922;12.198;2023-06-22T07:50:55;28.50;55.70
484;DHT22;228;48.922;12.198;2023-06-22T07:53:22;28.70;56.10
484;DHT22;228;48.922;12.198;2023-06-22T07:55:49;28.80;56.10
484;DHT22;228;48.922;12.198;2023-06-22T07:58:15;28.70;56.30
484;DHT22;228;48.922;12.198;2023-06-22T08:00:44;29.00;56.30
484;DHT22;228;48.922;12.198;2023-06-22T08:03:10;29.30;56.80
484;DHT22;228;48.922;12.198;2023-06-22T08:05:36;29.30;56.40
484;DHT22;228;48.922;12.198;2023-06-22T08:08:02;29.80;56.10
484;DHT22;228;48.922;12.198;2023-06-22T08:10:28;29.60;55.80
484;DHT22;228;48.922;12.198;2023-06-22T08:12:55;29.60;55.90
484;DHT22;228;48.922;12.198;2023-06-22T08:15:21;29.50;56.00
484;DHT22;228;48.922;12.198;2023-06-22T08:17:47;29.70;55.70
484;DHT22;228;48.922;12.198;2023-06-22T08:20:14;29.80;55.10
484;DHT22;228;48.922;12.198;2023-06-22T08:22:43;30.20;54.80
484;DHT22;228;48.922;12.198;2023-06-22T08:25:10;30.10;54.70
484;DHT22;228;48.922;12.198;2023-06-22T08:27:36;30.10;55.50
484;DHT22;228;48.922;12.198;2023-06-22T08:30:03;30.00;54.70
484;DHT22;228;48.922;12.198;2023-06-22T08:32:29;30.20;54.20
484;DHT22;228;48.922;12.198;2023-06-22T08:34:57;30.40;55.30
484;DHT22;228;48.922;12.198;2023-06-22T08:37:23;30.60;54.40
484;DHT22;228;48.922;12.198;2023-06-22T08:39:50;30.80;53.20
484;DHT22;228;48.922;12.198;2023-06-22T08:42:16;30.50;52.30
484;DHT22;228;48.922;12.198;2023-06-22T08:44:42;30.60;52.50
484;DHT22;228;48.922;12.198;2023-06-22T08:47:08;31.10;52.50
484;DHT22;228;48.922;12.198;2023-06-22T08:49:34;31.20;50.10
484;DHT22;228;48.922;12.198;2023-06-22T08:52:00;31.00;50.40
484;DHT22;228;48.922;12.198;2023-06-22T08:54:26;31.10;50.80
484;DHT22;228;48.922;12.198;2023-06-22T08:56:52;31.20;51.10
484;DHT22;228;48.922;12.198;2023-06-22T08:59:18;31.20;51.20
484;DHT22;228;48.922;12.198;2023-06-22T09:01:44;31.40;50.60
484;DHT22;228;48.922;12.198;2023-06-22T09:04:11;31.30;50.40
484;DHT22;228;48.922;12.198;2023-06-22T09:06:38;31.50;50.00
484;DHT22;228;48.922;12.198;2023-06-22T09:09:10;31.10;51.20
484;DHT22;228;48.922;12.198;2023-06-22T09:11:37;31.40;50.00
484;DHT22;228;48.922;12.198;2023-06-22T09:14:03;32.00;49.90
484;DHT22;228;48.922;12.198;2023-06-22T09:16:30;32.00;49.90
484;DHT22;228;48.922;12.198;2023-06-22T09:18:56;31.80;49.00
484;DHT22;228;48.922;12.198;2023-06-22T09:21:23;31.60;50.20
484;DHT22;228;48.922;12.198;2023-06-22T09:23:49;31.80;49.40
484;DHT22;228;48.922;12.198;2023-06-22T09:26:17;31.60;50.00
484;DHT22;228;48.922;12.198;2023-06-22T09:28:44;31.90;50.80
484;DHT22;228;48.922;12.198;2023-06-22T09:31:10;31.80;49.40
484;DHT22;228;48.922;12.198;2023-06-22T09:33:37;31.40;49.70
484;DHT22;228;48.922;12.198;2023-06-22T09:36:06;31.70;51.20
484;DHT22;228;48.922;12.198;2023-06-22T09:38:39;31.70;50.20
484;DHT22;228;48.922;12.198;2023-06-22T09:41:05;31.90;52.00
484;DHT22;228;48.922;12.198;2023-06-22T09:43:32;32.10;50.80
484;DHT22;228;48.922;12.198;2023-06-22T09:46:01;32.30;48.10
484;DHT22;228;48.922;12.198;2023-06-22T09:48:28;32.30;49.60
484;DHT22;228;48.922;12.198;2023-06-22T09:50:56;32.40;46.80
484;DHT22;228;48.922;12.198;2023-06-22T09:53:22;32.50;47.70
484;DHT22;228;48.922;12.198;2023-06-22T09:55:48;32.50;48.20
484;DHT22;228;48.922;12.198;2023-06-22T09:58:14;32.80;46.70
484;DHT22;228;48.922;12.198;2023-06-22T10:00:40;33.30;47.70
484;DHT22;228;48.922;12.198;2023-06-22T10:03:07;33.40;46.80
484;DHT22;228;48.922;12.198;2023-06-22T10:05:33;33.70;47.30
484;DHT22;228;48.922;12.198;2023-06-22T10:07:59;33.40;47.00
484;DHT22;228;48.922;12.198;2023-06-22T10:10:25;33.30;48.30
484;DHT22;228;48.922;12.198;2023-06-22T10:13:02;33.50;46.80
484;DHT22;228;48.922;12.198;2023-06-22T10:15:33;33.60;45.90
484;DHT22;228;48.922;12.198;2023-06-22T10:17:59;33.90;45.30
484;DHT22;228;48.922;12.198;2023-06-22T10:20:25;33.60;45.50
484;DHT22;228;48.922;12.198;2023-06-22T10:22:52;33.70;46.00
484;DHT22;228;48.922;12.198;2023-06-22T10:25:18;34.00;45.20
484;DHT22;228;48.922;12.198;2023-06-22T10:27:44;33.90;45.40
484;DHT22;228;48.922;12.198;2023-06-22T10:30:11;34.20;45.30
484;DHT22;228;48.922;12.198;2023-06-22T10:32:42;34.40;45.50
484;DHT22;228;48.922;12.198;2023-06-22T10:35:09;34.70;45.20
484;DHT22;228;48.922;12.198;2023-06-22T10:37:42;34.70;42.90
484;DHT22;228;48.922;12.198;2023-06-22T10:40:10;34.40;43.60
484;DHT22;228;48.922;12.198;2023-06-22T10:42:37;34.40;44.70
484;DHT22;228;48.922;12.198;2023-06-22T10:45:03;34.30;43.90
484;DHT22;228;48.922;12.198;2023-06-22T10:47:30;34.10;45.80
484;DHT22;228;48.922;12.198;2023-06-22T10:49:56;34.30;44.50
484;DHT22;228;48.922;12.198;2023-06-22T10:52:22;34.60;47.30
484;DHT22;228;48.922;12.198;2023-06-22T10:54:48;34.80;45.60
484;DHT22;228;48.922;12.198;2023-06-22T10:57:14;35.10;44.90
484;DHT22;228;48.922;12.198;2023-06-22T10:59:40;35.30;43.30
484;DHT22;228;48.922;12.198;2023-06-22T11:02:06;35.50;43.00
484;DHT22;228;48.922;12.198;2023-06-22T11:04:32;35.10;43.50
484;DHT22;228;48.922;12.198;2023-06-22T11:06:58;35.30;42.70
484;DHT22;228;48.922;12.198;2023-06-22T11:09:24;35.70;42.20
484;DHT22;228;48.922;12.198;2023-06-22T11:11:51;35.40;41.80
484;DHT22;228;48.922;12.198;2023-06-22T11:14:20;35.60;42.90
484;DHT22;228;48.922;12.198;2023-06-22T11:16:47;35.40;41.90
484;DHT22;228;48.922;12.198;2023-06-22T11:19:13;35.70;42.20
484;DHT22;228;48.922;12.198;2023-06-22T11:21:39;35.60;43.10
484;DHT22;228;48.922;12.198;2023-06-22T11:24:05;35.90;42.30
484;DHT22;228;48.922;12.198;2023-06-22T11:26:32;36.20;41.10
484;DHT22;228;48.922;12.198;2023-06-22T11:28:58;36.40;41.00
484;DHT22;228;48.922;12.198;2023-06-22T11:31:25;36.50;39.00
484;DHT22;228;48.922;12.198;2023-06-22T11:33:51;37.20;40.80
484;DHT22;228;48.922;12.198;2023-06-22T11:36:17;37.80;37.20
484;DHT22;228;48.922;12.198;2023-06-22T11:38:44;38.00;36.20
484;DHT22;228;48.922;12.198;2023-06-22T11:41:10;39.20;35.90
484;DHT22;228;48.922;12.198;2023-06-22T11:43:36;40.30;35.00
484;DHT22;228;48.922;12.198;2023-06-22T11:46:03;41.40;33.00
484;DHT22;228;48.922;12.198;2023-06-22T11:48:30;41.40;30.80
484;DHT22;228;48.922;12.198;2023-06-22T11:50:56;40.70;32.30
484;DHT22;228;48.922;12.198;2023-06-22T11:53:25;39.90;34.20
484;DHT22;228;48.922;12.198;2023-06-22T11:55:52;40.00;34.60
484;DHT22;228;48.922;12.198;2023-06-22T11:58:19;40.00;32.90
484;DHT22;228;48.922;12.198;2023-06-22T12:00:45;40.30;33.10
484;DHT22;228;48.922;12.198;2023-06-22T12:03:11;39.70;34.20
484;DHT22;228;48.922;12.198;2023-06-22T12:05:38;40.20;33.80
484;DHT22;228;48.922;12.198;2023-06-22T12:08:04;40.90;35.40
484;DHT22;228;48.922;12.198;2023-06-22T12:10:31;42.40;31.50
484;DHT22;228;48.922;12.198;2023-06-22T12:12:57;42.80;29.70
484;DHT22;228;48.922;12.198;2023-06-22T12:15:24;43.80;28.90
484;DHT22;228;48.922;12.198;2023-06-22T12:17:50;44.20;28.10
484;DHT22;228;48.922;12.198;2023-06-22T12:20:16;44.50;28.00
484;DHT22;228;48.922;12.198;2023-06-22T12:22:43;44.50;28.30
484;DHT22;228;48.922;12.198;2023-06-22T12:25:09;43.80;29.00
484;DHT22;228;48.922;12.198;2023-06-22T12:27:36;44.30;29.00
484;DHT22;228;48.922;12.198;2023-06-22T12:30:03;44.80;28.10
484;DHT22;228;48.922;12.198;2023-06-22T12:32:30;45.60;28.10
484;DHT22;228;48.922;12.198;2023-06-22T12:34:56;47.20;25.90
484;DHT22;228;48.922;12.198;2023-06-22T12:37:23;46.90;25.60
484;DHT22;228;48.922;12.198;2023-06-22T12:39:49;47.00;25.80
484;DHT22;228;48.922;12.198;2023-06-22T12:42:16;47.60;25.60
484;DHT22;228;48.922;12.198;2023-06-22T12:44:42;47.30;25.80
484;DHT22;228;48.922;12.198;2023-06-22T12:47:08;47.10;26.10
484;DHT22;228;48.922;12.198;2023-06-22T12:49:35;47.80;25.40
484;DHT22;228;48.922;12.198;2023-06-22T12:52:02;47.80;25.10
484;DHT22;228;48.922;12.198;2023-06-22T12:54:29;49.10;25.40
484;DHT22;228;48.922;12.198;2023-06-22T12:56:56;49.80;24.80
484;DHT22;228;48.922;12.198;2023-06-22T12:59:22;50.00;23.40
484;DHT22;228;48.922;12.198;2023-06-22T13:01:48;50.20;23.40
484;DHT22;228;48.922;12.198;2023-06-22T13:04:14;50.00;23.80
484;DHT22;228;48.922;12.198;2023-06-22T13:06:41;49.70;22.60
484;DHT22;228;48.922;12.198;2023-06-22T13:09:10;49.80;23.50
484;DHT22;228;48.922;12.198;2023-06-22T13:11:36;48.40;24.30
484;DHT22;228;48.922;12.198;2023-06-22T13:14:02;47.90;23.90
484;DHT22;228;48.922;12.198;2023-06-22T13:16:28;48.00;24.20
484;DHT22;228;48.922;12.198;2023-06-22T13:18:54;48.50;24.00
484;DHT22;228;48.922;12.198;2023-06-22T13:21:20;49.80;23.40
484;DHT22;228;48.922;12.198;2023-06-22T13:23:46;50.20;22.60
484;DHT22;228;48.922;12.198;2023-06-22T13:26:12;49.50;22.70
484;DHT22;228;48.922;12.198;2023-06-22T13:28:38;49.80;22.80
484;DHT22;228;48.922;12.198;2023-06-22T13:31:04;49.40;22.90
484;DHT22;228;48.922;12.198;2023-06-22T13:33:31;49.20;23.30
484;DHT22;228;48.922;12.198;2023-06-22T13:35:57;50.00;22.20
484;DHT22;228;48.922;12.198;2023-06-22T13:38:23;50.40;22.40
484;DHT22;228;48.922;12.198;2023-06-22T13:40:49;49.60;22.80
484;DHT22;228;48.922;12.198;2023-06-22T13:43:16;49.70;23.20
484;DHT22;228;48.922;12.198;2023-06-22T13:45:43;49.00;23.10
484;DHT22;228;48.922;12.198;2023-06-22T13:48:09;48.50;23.70
484;DHT22;228;48.922;12.198;2023-06-22T13:50:35;49.80;22.30
484;DHT22;228;48.922;12.198;2023-06-22T13:53:01;51.00;22.40
484;DHT22;228;48.922;12.198;2023-06-22T13:55:27;52.20;21.00
484;DHT22;228;48.922;12.198;2023-06-22T13:57:53;52.40;21.40
484;DHT22;228;48.922;12.198;2023-06-22T14:00:19;52.10;20.80
484;DHT22;228;48.922;12.198;2023-06-22T14:02:45;50.40;21.20
484;DHT22;228;48.922;12.198;2023-06-22T14:05:11;48.80;22.80
484;DHT22;228;48.922;12.198;2023-06-22T14:07:38;47.30;23.40
484;DHT22;228;48.922;12.198;2023-06-22T14:10:04;47.10;23.90
484;DHT22;228;48.922;12.198;2023-06-22T14:12:30;46.00;24.60
484;DHT22;228;48.922;12.198;2023-06-22T14:14:56;46.80;25.00
484;DHT22;228;48.922;12.198;2023-06-22T14:17:23;46.20;24.60
484;DHT22;228;48.922;12.198;2023-06-22T14:19:51;45.20;25.40
484;DHT22;228;48.922;12.198;2023-06-22T14:22:19;44.40;26.20
484;DHT22;228;48.922;12.198;2023-06-22T14:24:46;43.10;27.60
484;DHT22;228;48.922;12.198;2023-06-22T14:27:13;42.50;28.70
484;DHT22;228;48.922;12.198;2023-06-22T14:29:39;41.50;29.20
484;DHT22;228;48.922;12.198;2023-06-22T14:32:05;40.90;29.80
484;DHT22;228;48.922;12.198;2023-06-22T14:34:33;41.10;30.10
484;DHT22;228;48.922;12.198;2023-06-22T14:37:02;43.00;30.30
484;DHT22;228;48.922;12.198;2023-06-22T14:39:28;45.90;26.40
484;DHT22;228;48.922;12.198;2023-06-22T14:41:54;47.50;24.50
484;DHT22;228;48.922;12.198;2023-06-22T14:44:20;49.10;22.90
484;DHT22;228;48.922;12.198;2023-06-22T14:46:47;49.60;22.00
484;DHT22;228;48.922;12.198;2023-06-22T14:49:13;49.90;22.00
484;DHT22;228;48.922;12.198;2023-06-22T14:51:39;50.30;22.80
484;DHT22;228;48.922;12.198;2023-06-22T14:54:05;51.70;21.10
484;DHT22;228;48.922;12.198;2023-06-22T14:56:31;51.30;21.60
484;DHT22;228;48.922;12.198;2023-06-22T14:58:57;51.50;20.80
484;DHT22;228;48.922;12.198;2023-06-22T15:01:23;50.00;21.40
484;DHT22;228;48.922;12.198;2023-06-22T15:03:49;49.30;22.90
484;DHT22;228;48.922;12.198;2023-06-22T15:06:15;50.50;21.50
484;DHT22;228;48.922;12.198;2023-06-22T15:08:41;51.70;20.80
484;DHT22;228;48.922;12.198;2023-06-22T15:11:08;52.10;19.70
484;DHT22;228;48.922;12.198;2023-06-22T15:13:35;52.70;19.70
484;DHT22;228;48.922;12.198;2023-06-22T15:16:02;52.10;19.50
484;DHT22;228;48.922;12.198;2023-06-22T15:18:31;52.50;19.70
484;DHT22;228;48.922;12.198;2023-06-22T15:21:02;53.10;18.90
484;DHT22;228;48.922;12.198;2023-06-22T15:23:29;53.80;18.90
484;DHT22;228;48.922;12.198;2023-06-22T15:25:56;54.50;18.90
484;DHT22;228;48.922;12.198;2023-06-22T15:28:23;53.80;19.10
484;DHT22;228;48.922;12.198;2023-06-22T15:30:50;53.20;19.70
484;DHT22;228;48.922;12.198;2023-06-22T15:33:19;53.20;19.70
484;DHT22;228;48.922;12.198;2023-06-22T15:35:45;53.00;19.70
484;DHT22;228;48.922;12.198;2023-06-22T15:38:12;52.80;19.70
484;DHT22;228;48.922;12.198;2023-06-22T15:40:38;53.10;19.80
484;DHT22;228;48.922;12.198;2023-06-22T15:43:04;53.40;19.50
484;DHT22;228;48.922;12.198;2023-06-22T15:45:31;53.30;19.10
484;DHT22;228;48.922;12.198;2023-06-22T15:47:57;53.00;19.60
484;DHT22;228;48.922;12.198;2023-06-22T15:50:23;52.40;19.80
484;DHT22;228;48.922;12.198;2023-06-22T15:52:49;52.80;20.00
484;DHT22;228;48.922;12.198;2023-06-22T15:55:18;52.80;19.50
484;DHT22;228;48.922;12.198;2023-06-22T15:57:45;52.70;20.00
484;DHT22;228;48.922;12.198;2023-06-22T16:00:16;52.30;19.90
484;DHT22;228;48.922;12.198;2023-06-22T16:02:45;52.80;20.30
484;DHT22;228;48.922;12.198;2023-06-22T16:05:11;53.20;20.00
484;DHT22;228;48.922;12.198;2023-06-22T16:07:37;52.70;20.20
484;DHT22;228;48.922;12.198;2023-06-22T16:10:04;52.60;19.70
484;DHT22;228;48.922;12.198;2023-06-22T16:12:33;51.40;20.50
484;DHT22;228;48.922;12.198;2023-06-22T16:15:01;51.40;21.10
484;DHT22;228;48.922;12.198;2023-06-22T16:17:28;50.20;21.70
484;DHT22;228;48.922;12.198;2023-06-22T16:19:54;50.00;21.80
484;DHT22;228;48.922;12.198;2023-06-22T16:22:21;49.30;22.90
484;DHT22;228;48.922;12.198;2023-06-22T16:24:48;49.60;21.90
484;DHT22;228;48.922;12.198;2023-06-22T16:27:14;50.10;22.20
484;DHT22;228;48.922;12.198;2023-06-22T16:29:41;50.50;21.70
484;DHT22;228;48.922;12.198;2023-06-22T16:32:07;50.40;21.90
484;DHT22;228;48.922;12.198;2023-06-22T16:34:34;50.10;21.80
484;DHT22;228;48.922;12.198;2023-06-22T16:37:01;50.10;21.70
484;DHT22;228;48.922;12.198;2023-06-22T16:39:27;49.80;21.90
484;DHT22;228;48.922;12.198;2023-06-22T16:41:53;49.80;22.50
484;DHT22;228;48.922;12.198;2023-06-22T16:44:19;49.60;22.50
484;DHT22;228;48.922;12.198;2023-06-22T16:46:45;48.90;22.70
484;DHT22;228;48.922;12.198;2023-06-22T16:49:12;48.80;22.30
484;DHT22;228;48.922;12.198;2023-06-22T16:51:41;48.60;22.90
484;DHT22;228;48.922;12.198;2023-06-22T16:54:07;48.80;23.10
484;DHT22;228;48.922;12.198;2023-06-22T16:56:34;48.80;23.70
484;DHT22;228;48.922;12.198;2023-06-22T16:59:01;47.90;23.50
484;DHT22;228;48.922;12.198;2023-06-22T17:01:28;46.50;24.90
484;DHT22;228;48.922;12.198;2023-06-22T17:04:09;45.30;25.90
484;DHT22;228;48.922;12.198;2023-06-22T17:06:42;44.10;27.20
484;DHT22;228;48.922;12.198;2023-06-22T17:09:11;43.20;27.40
484;DHT22;228;48.922;12.198;2023-06-22T17:11:40;42.40;28.60
484;DHT22;228;48.922;12.198;2023-06-22T17:14:06;42.00;28.60
484;DHT22;228;48.922;12.198;2023-06-22T17:16:33;41.50;29.70
484;DHT22;228;48.922;12.198;2023-06-22T17:19:03;41.40;29.60
484;DHT22;228;48.922;12.198;2023-06-22T17:21:31;41.40;30.20
484;DHT22;228;48.922;12.198;2023-06-22T17:24:00;40.60;30.40
484;DHT22;228;48.922;12.198;2023-06-22T17:26:27;39.80;31.80
484;DHT22;228;48.922;12.198;2023-06-22T17:28:54;39.70;32.00
484;DHT22;228;48.922;12.198;2023-06-22T17:31:36;39.90;32.20
484;DHT22;228;48.922;12.198;2023-06-22T17:34:30;40.20;33.00
484;DHT22;228;48.922;12.198;2023-06-22T17:36:58;40.20;31.80
484;DHT22;228;48.922;12.198;2023-06-22T17:39:26;40.20;33.60
484;DHT22;228;48.922;12.198;2023-06-22T17:41:54;39.90;32.50
484;DHT22;228;48.922;12.198;2023-06-22T17:44:26;39.60;32.80
484;DHT22;228;48.922;12.198;2023-06-22T17:46:54;39.10;32.80
484;DHT22;228;48.922;12.198;2023-06-22T17:49:30;38.60;34.30
484;DHT22;228;48.922;12.198;2023-06-22T17:52:00;38.20;34.40
484;DHT22;228;48.922;12.198;2023-06-22T17:54:30;37.80;35.00
484;DHT22;228;48.922;12.198;2023-06-22T17:56:57;37.50;36.20
484;DHT22;228;48.922;12.198;2023-06-22T17:59:24;37.20;37.90
484;DHT22;228;48.922;12.198;2023-06-22T18:01:50;36.90;39.00
484;DHT22;228;48.922;12.198;2023-06-22T18:04:18;36.60;38.10
484;DHT22;228;48.922;12.198;2023-06-22T18:06:46;36.30;39.20
484;DHT22;228;48.922;12.198;2023-06-22T18:09:23;36.10;41.00
484;DHT22;228;48.922;12.198;2023-06-22T18:11:50;35.90;42.20
484;DHT22;228;48.922;12.198;2023-06-22T18:14:18;35.50;43.80
484;DHT22;228;48.922;12.198;2023-06-22T18:16:47;35.00;44.80
484;DHT22;228;48.922;12.198;2023-06-22T18:19:15;34.60;46.10
484;DHT22;228;48.922;12.198;2023-06-22T18:21:45;34.30;47.00
484;DHT22;228;48.922;12.198;2023-06-22T18:24:14;33.80;47.80
484;DHT22;228;48.922;12.198;2023-06-22T18:26:41;33.40;48.30
484;DHT22;228;48.922;12.198;2023-06-22T18:29:09;32.90;48.80
484;DHT22;228;48.922;12.198;2023-06-22T18:31:35;32.70;49.60
484;DHT22;228;48.922;12.198;2023-06-22T18:34:02;32.60;49.60
484;DHT22;228;48.922;12.198;2023-06-22T18:36:42;32.50;49.10
484;DHT22;228;48.922;12.198;2023-06-22T18:39:12;32.50;48.40
484;DHT22;228;48.922;12.198;2023-06-22T18:41:40;32.70;47.90
484;DHT22;228;48.922;12.198;2023-06-22T18:44:33;32.90;47.50
484;DHT22;228;48.922;12.198;2023-06-22T18:47:07;33.10;47.50
484;DHT22;228;48.922;12.198;2023-06-22T18:49:46;33.20;47.10
484;DHT22;228;48.922;12.198;2023-06-22T18:52:24;32.90;47.60
484;DHT22;228;48.922;12.198;2023-06-22T18:54:51;32.60;48.90
484;DHT22;228;48.922;12.198;2023-06-22T18:57:22;32.00;50.60
484;DHT22;228;48.922;12.198;2023-06-22T18:59:58;31.30;52.20
484;DHT22;228;48.922;12.198;2023-06-22T19:02:44;30.10;57.10
484;DHT22;228;48.922;12.198;2023-06-22T19:05:15;29.40;60.40
484;DHT22;228;48.922;12.198;2023-06-22T19:15:42;28.50;66.80
484;DHT22;228;48.922;12.198;2023-06-22T19:18:20;27.60;66.90
484;DHT22;228;48.922;12.198;2023-06-22T19:20:48;27.00;65.80
484;DHT22;228;48.922;12.198;2023-06-22T19:23:31;27.00;68.60
484;DHT22;228;48.922;12.198;2023-06-22T19:26:05;27.10;70.10
484;DHT22;228;48.922;12.198;2023-06-22T19:28:50;26.90;70.40
484;DHT22;228;48.922;12.198;2023-06-22T19:31:19;26.30;74.80
484;DHT22;228;48.922;12.198;2023-06-22T19:33:46;25.90;76.60
484;DHT22;228;48.922;12.198;2023-06-22T19:36:19;26.20;77.50
484;DHT22;228;48.922;12.198;2023-06-22T19:38:45;26.70;76.80
484;DHT22;228;48.922;12.198;2023-06-22T19:41:11;26.80;76.60
484;DHT22;228;48.922;12.198;2023-06-22T19:43:37;26.70;75.90
484;DHT22;228;48.922;12.198;2023-06-22T19:46:04;26.50;77.90
484;DHT22;228;48.922;12.198;2023-06-22T19:48:30;26.30;79.90
484;DHT22;228;48.922;12.198;2023-06-22T19:51:02;26.60;80.00
484;DHT22;228;48.922;12.198;2023-06-22T19:53:30;26.60;79.20
484;DHT22;228;48.922;12.198;2023-06-22T19:55:56;26.70;77.80
484;DHT22;228;48.922;12.198;2023-06-22T19:58:24;26.40;78.50
484;DHT22;228;48.922;12.198;2023-06-22T20:00:54;25.60;80.20
484;DHT22;228;48.922;12.198;2023-06-22T20:03:29;25.30;83.10
484;DHT22;228;48.922;12.198;2023-06-22T20:06:16;25.40;79.40
484;DHT22;228;48.922;12.198;2023-06-22T20:08:53;26.30;74.90
484;DHT22;228;48.922;12.198;2023-06-22T20:11:28;26.80;70.20
484;DHT22;228;48.922;12.198;2023-06-22T20:13:55;27.40;65.70
484;DHT22;228;48.922;12.198;2023-06-22T20:16:23;27.20;63.00
484;DHT22;228;48.922;12.198;2023-06-22T20:19:10;27.40;63.30
484;DHT22;228;48.922;12.198;2023-06-22T20:21:39;27.60;63.50
484;DHT22;228;48.922;12.198;2023-06-22T20:24:08;27.80;62.30
484;DHT22;228;48.922;12.198;2023-06-22T20:26:41;27.00;67.10